Time;durP1;ratioP1;P1;durP2;ratioP2;P2;SDS_P1;SDS_P2;PMS_P1;PMS_P2;Temp;Humidity;BMP_temperature;BMP_pressure;BME280_temperature;BME280_humidity;BME280_pressure;Samples;Min_cycle;Max_cycle;Signal;HPM_P1;HPM_P2
2020/12/02 00:00:24;;;;;;;21.75;13.23;;;;;;;;;;5041527;28;20072;-66
2020/12/02 00:02:53;;;;;;;24.92;14.63;;;;;;;;;;5047317;28;20049;-66
2020/12/02 00:05:20;;;;;;;23.88;13.63;;;;;;;;;;5043745;28;20492;-66
2020/12/02 00:07:47;;;;;;;22.48;14.15;;;;;;;;;;5046043;28;20052;-67
2020/12/02 00:10:13;;;;;;;22.70;13.23;;;;;;;;;;5036730;28;20045;-66
2020/12/02 00:12:40;;;;;;;22.67;14.77;;;;;;;;;;5048137;28;20037;-66
2020/12/02 00:15:06;;;;;;;28.00;14.85;;;;;;;;;;5047001;28;20118;-66
2020/12/02 00:17:33;;;;;;;16.63;10.05;;;;;;;;;;5051531;28;20447;-66
2020/12/02 00:19:59;;;;;;;28.70;13.80;;;;;;;;;;5052844;28;20095;-68
2020/12/02 00:22:25;;;;;;;28.35;15.52;;;;;;;;;;5050144;28;20049;-66
2020/12/02 00:24:51;;;;;;;29.85;16.92;;;;;;;;;;5048724;28;20045;-66
2020/12/02 00:27:20;;;;;;;34.03;15.35;;;;;;;;;;5054718;28;20040;-67
2020/12/02 00:29:46;;;;;;;27.70;14.63;;;;;;;;;;5052182;28;20509;-66
2020/12/02 00:32:35;;;;;;;27.42;15.55;;;;;;;;;;5050813;28;20072;-66
2020/12/02 00:35:03;;;;;;;26.27;14.73;;;;;;;;;;5050178;28;20041;-66
2020/12/02 00:37:30;;;;;;;28.95;15.15;;;;;;;;;;5040080;28;20116;-67
2020/12/02 00:39:56;;;;;;;33.45;16.20;;;;;;;;;;5055030;28;20091;-66
2020/12/02 00:42:23;;;;;;;35.28;15.77;;;;;;;;;;5053957;28;20055;-66
2020/12/02 00:44:49;;;;;;;30.13;15.13;;;;;;;;;;5052194;28;20052;-66
2020/12/02 00:47:22;;;;;;;31.55;16.80;;;;;;;;;;5048396;28;20067;-66
2020/12/02 00:49:50;;;;;;;37.70;18.17;;;;;;;;;;5046238;28;20171;-66
2020/12/02 00:52:16;;;;;;;30.08;15.68;;;;;;;;;;5019880;28;20068;-66
2020/12/02 00:54:43;;;;;;;39.30;17.67;;;;;;;;;;5047455;28;20448;-66
2020/12/02 00:57:21;;;;;;;38.20;16.65;;;;;;;;;;5023069;28;20064;-66
2020/12/02 00:59:54;;;;;;;25.55;12.55;;;;;;;;;;5041085;28;20066;-66
2020/12/02 01:02:41;;;;;;;42.55;16.75;;;;;;;;;;5045150;28;20049;-66
2020/12/02 01:05:08;;;;;;;32.25;17.25;;;;;;;;;;5047042;28;20090;-66
2020/12/02 01:07:38;;;;;;;38.58;17.70;;;;;;;;;;5041367;28;20432;-67
2020/12/02 01:10:04;;;;;;;33.97;18.13;;;;;;;;;;5045567;28;20052;-66
2020/12/02 01:12:31;;;;;;;39.47;18.65;;;;;;;;;;5040741;28;20065;-66
2020/12/02 01:14:57;;;;;;;37.60;17.63;;;;;;;;;;5050576;28;20034;-66
2020/12/02 01:17:23;;;;;;;37.85;17.48;;;;;;;;;;5058633;28;20554;-66
2020/12/02 01:19:49;;;;;;;38.78;18.05;;;;;;;;;;5048576;28;20041;-66
2020/12/02 01:22:15;;;;;;;48.70;19.35;;;;;;;;;;5029076;28;20057;-67
2020/12/02 01:24:45;;;;;;;40.70;18.42;;;;;;;;;;5043699;28;20068;-66
2020/12/02 01:27:13;;;;;;;45.30;21.38;;;;;;;;;;5050072;28;20040;-66
2020/12/02 01:29:39;;;;;;;48.05;20.48;;;;;;;;;;5044187;28;20045;-66
2020/12/02 01:32:06;;;;;;;46.72;20.90;;;;;;;;;;5045766;28;20128;-66
2020/12/02 01:34:32;;;;;;;41.67;20.40;;;;;;;;;;5051099;28;20045;-66
2020/12/02 01:37:02;;;;;;;46.28;22.48;;;;;;;;;;5039634;28;20036;-66
2020/12/02 01:39:30;;;;;;;48.13;22.83;;;;;;;;;;5041043;28;20037;-67
2020/12/02 01:41:56;;;;;;;45.20;23.17;;;;;;;;;;5054933;28;20056;-66
2020/12/02 01:44:23;;;;;;;49.85;24.20;;;;;;;;;;5042707;28;20169;-66
2020/12/02 01:46:58;;;;;;;47.67;23.90;;;;;;;;;;5044965;28;20069;-66
2020/12/02 01:49:30;;;;;;;48.17;24.10;;;;;;;;;;5043685;28;20063;-66
2020/12/02 01:52:04;;;;;;;51.28;23.80;;;;;;;;;;5043472;28;20060;-66
2020/12/02 01:54:36;;;;;;;47.65;24.42;;;;;;;;;;5052470;28;20048;-66
2020/12/02 01:57:09;;;;;;;45.67;23.50;;;;;;;;;;5057780;28;20053;-66
2020/12/02 01:59:48;;;;;;;49.17;24.58;;;;;;;;;;5046770;28;20501;-66
2020/12/02 02:02:19;;;;;;;44.63;22.17;;;;;;;;;;5047489;28;20049;-66
2020/12/02 02:04:46;;;;;;;49.72;24.23;;;;;;;;;;5054879;28;20079;-66
2020/12/02 02:07:17;;;;;;;51.53;24.60;;;;;;;;;;5041505;28;20531;-66
2020/12/02 02:09:44;;;;;;;55.65;25.80;;;;;;;;;;5038715;28;20052;-66
2020/12/02 02:12:30;;;;;;;47.97;23.42;;;;;;;;;;5051382;28;20508;-66
2020/12/02 02:15:03;;;;;;;43.92;22.55;;;;;;;;;;5052352;28;20045;-67
2020/12/02 02:17:30;;;;;;;48.67;23.52;;;;;;;;;;5052832;28;20037;-67
2020/12/02 02:19:57;;;;;;;47.60;23.58;;;;;;;;;;5045910;28;20038;-66
2020/12/02 02:22:23;;;;;;;;;;;;;;;;;;5053015;28;20543;-66
2020/12/02 02:24:50;;;;;;;46.88;21.55;;;;;;;;;;5052107;28;20368;-66
2020/12/02 02:27:18;;;;;;;48.38;24.75;;;;;;;;;;5053126;28;20576;-66
2020/12/02 02:29:46;;;;;;;39.00;21.23;;;;;;;;;;5045729;28;20057;-66
2020/12/02 02:32:19;;;;;;;44.45;23.70;;;;;;;;;;5047886;28;20439;-66
2020/12/02 02:34:47;;;;;;;47.17;24.00;;;;;;;;;;5043782;28;20064;-66
2020/12/02 02:37:13;;;;;;;43.90;23.00;;;;;;;;;;5044061;28;20048;-67
2020/12/02 02:39:43;;;;;;;42.95;23.10;;;;;;;;;;5044664;28;20033;-66
2020/12/02 02:42:24;;;;;;;36.47;20.98;;;;;;;;;;5055140;28;20068;-66
2020/12/02 02:44:51;;;;;;;45.47;23.17;;;;;;;;;;5046564;28;20422;-67
2020/12/02 02:47:17;;;;;;;45.77;24.43;;;;;;;;;;5053616;28;20064;-66
2020/12/02 02:49:43;;;;;;;42.58;23.35;;;;;;;;;;5050254;28;20730;-66
2020/12/02 02:52:09;;;;;;;46.97;24.15;;;;;;;;;;5045421;28;20049;-66
2020/12/02 02:54:36;;;;;;;50.92;26.23;;;;;;;;;;5046311;28;20060;-66
2020/12/02 02:57:03;;;;;;;45.83;24.20;;;;;;;;;;5051438;28;20066;-66
2020/12/02 02:59:29;;;;;;;50.20;25.63;;;;;;;;;;5047980;28;20163;-66
2020/12/02 03:01:56;;;;;;;44.25;24.52;;;;;;;;;;5059792;28;20044;-66
2020/12/02 03:04:22;;;;;;;48.00;25.65;;;;;;;;;;5049381;28;20036;-66
2020/12/02 03:06:48;;;;;;;40.55;23.80;;;;;;;;;;5042072;28;20045;-66
2020/12/02 03:09:15;;;;;;;40.13;24.48;;;;;;;;;;5048142;28;20041;-66
2020/12/02 03:11:41;;;;;;;46.47;23.77;;;;;;;;;;5059246;28;20057;-66
2020/12/02 03:14:09;;;;;;;40.58;23.77;;;;;;;;;;5053141;28;20045;-67
2020/12/02 03:16:35;;;;;;;;;;;;;;;;;;5057671;28;20041;-67
2020/12/02 03:19:07;;;;;;;43.17;23.38;;;;;;;;;;5040315;28;19932;-66
2020/12/02 03:21:33;;;;;;;50.58;26.00;;;;;;;;;;5037261;28;20053;-66
2020/12/02 03:23:59;;;;;;;48.17;25.73;;;;;;;;;;5056468;28;20045;-66
2020/12/02 03:26:27;;;;;;;45.00;24.75;;;;;;;;;;5045419;28;20374;-66
2020/12/02 03:28:53;;;;;;;47.50;26.00;;;;;;;;;;5053610;28;20036;-67
2020/12/02 03:31:20;;;;;;;42.47;23.38;;;;;;;;;;5046887;28;20382;-66
2020/12/02 03:33:46;;;;;;;44.05;23.35;;;;;;;;;;5049414;28;20049;-67
2020/12/02 03:36:15;;;;;;;38.10;22.40;;;;;;;;;;5044082;28;20122;-66
2020/12/02 03:38:42;;;;;;;44.40;24.92;;;;;;;;;;5042465;28;20160;-66
2020/12/02 03:41:09;;;;;;;53.88;26.38;;;;;;;;;;5057561;28;20045;-67
2020/12/02 03:43:35;;;;;;;50.33;26.17;;;;;;;;;;5049780;28;20068;-66
2020/12/02 03:46:01;;;;;;;43.75;25.20;;;;;;;;;;5044187;28;20041;-66
2020/12/02 03:48:28;;;;;;;48.05;25.73;;;;;;;;;;5046316;28;20045;-66
2020/12/02 03:50:54;;;;;;;57.15;26.65;;;;;;;;;;5048844;28;20036;-67
2020/12/02 03:53:20;;;;;;;51.08;25.95;;;;;;;;;;5048554;28;20102;-66
2020/12/02 03:55:47;;;;;;;49.63;25.97;;;;;;;;;;5053263;28;20087;-66
2020/12/02 03:58:13;;;;;;;44.85;25.20;;;;;;;;;;5046524;28;20049;-66
2020/12/02 04:00:41;;;;;;;45.08;24.95;;;;;;;;;;5046998;28;20113;-66
2020/12/02 04:03:07;;;;;;;51.30;27.10;;;;;;;;;;5046891;28;20405;-66
2020/12/02 04:05:33;;;;;;;49.35;26.50;;;;;;;;;;5044577;28;20099;-66
2020/12/02 04:08:00;;;;;;;48.57;26.43;;;;;;;;;;5041766;28;20087;-67
2020/12/02 04:10:30;;;;;;;49.70;26.65;;;;;;;;;;5047630;28;20424;-66
2020/12/02 04:12:57;;;;;;;53.50;26.60;;;;;;;;;;5041315;28;20496;-66
2020/12/02 04:15:23;;;;;;;49.25;26.83;;;;;;;;;;5045744;28;20053;-67
2020/12/02 04:17:49;;;;;;;48.28;25.90;;;;;;;;;;5043828;28;20041;-66
2020/12/02 04:20:17;;;;;;;48.38;26.55;;;;;;;;;;5047379;28;20575;-66
2020/12/02 04:22:45;;;;;;;52.30;27.15;;;;;;;;;;5042771;28;20041;-66
2020/12/02 04:25:11;;;;;;;45.63;25.08;;;;;;;;;;5043571;28;20044;-66
2020/12/02 04:27:37;;;;;;;48.75;26.60;;;;;;;;;;5039176;28;20033;-67
2020/12/02 04:30:04;;;;;;;47.17;25.77;;;;;;;;;;5061851;28;20033;-66
2020/12/02 04:32:30;;;;;;;53.75;28.48;;;;;;;;;;5045570;28;20542;-67
2020/12/02 04:35:01;;;;;;;48.78;27.48;;;;;;;;;;5046457;28;20041;-67
2020/12/02 04:37:29;;;;;;;46.88;25.00;;;;;;;;;;5047697;28;20051;-66
2020/12/02 04:39:55;;;;;;;44.78;24.40;;;;;;;;;;5046829;28;20396;-66
2020/12/02 04:42:25;;;;;;;48.15;25.63;;;;;;;;;;5051279;28;20520;-67
2020/12/02 04:44:51;;;;;;;45.70;26.50;;;;;;;;;;5051066;28;20421;-66
2020/12/02 04:47:18;;;;;;;47.72;26.80;;;;;;;;;;5041429;28;20402;-66
2020/12/02 04:49:46;;;;;;;48.35;27.35;;;;;;;;;;5045463;28;20129;-66
2020/12/02 04:52:14;;;;;;;45.22;25.30;;;;;;;;;;5055281;28;20446;-67
2020/12/02 04:54:41;;;;;;;45.90;26.13;;;;;;;;;;5042045;28;20440;-67
2020/12/02 04:57:10;;;;;;;41.90;24.77;;;;;;;;;;5049795;28;20041;-66
2020/12/02 04:59:38;;;;;;;45.33;25.67;;;;;;;;;;5045701;28;20408;-66
2020/12/02 05:02:04;;;;;;;;;;;;;;;;;;5043063;28;20059;-67
2020/12/02 05:04:31;;;;;;;51.38;26.33;;;;;;;;;;5040622;28;20017;-67
2020/12/02 05:07:14;;;;;;;45.23;25.50;;;;;;;;;;5041524;28;20048;-66
2020/12/02 05:09:51;;;;;;;52.28;26.90;;;;;;;;;;5042580;28;20045;-66
2020/12/02 05:12:25;;;;;;;44.88;25.67;;;;;;;;;;5038485;28;20138;-66
2020/12/02 05:14:51;;;;;;;45.42;25.63;;;;;;;;;;5038321;28;20559;-66
2020/12/02 05:17:21;;;;;;;42.80;24.80;;;;;;;;;;5037158;28;20041;-66
2020/12/02 05:20:02;;;;;;;40.75;23.70;;;;;;;;;;5046695;28;20303;-67
2020/12/02 05:22:33;;;;;;;42.70;24.10;;;;;;;;;;5049574;28;20052;-66
2020/12/02 05:24:59;;;;;;;42.72;24.90;;;;;;;;;;5046630;28;20497;-66
2020/12/02 05:27:29;;;;;;;41.65;24.48;;;;;;;;;;5041195;28;20046;-66
2020/12/02 05:29:56;;;;;;;46.70;24.15;;;;;;;;;;5038284;28;20041;-66
2020/12/02 05:32:22;;;;;;;;;;;;;;;;;;5044619;28;20371;-66
2020/12/02 05:34:49;;;;;;;43.22;22.15;;;;;;;;;;5045484;28;20020;-66
2020/12/02 05:37:34;;;;;;;44.30;24.30;;;;;;;;;;5037757;28;20049;-66
2020/12/02 05:40:03;;;;;;;46.33;24.55;;;;;;;;;;5038526;28;20124;-66
2020/12/02 05:42:31;;;;;;;44.65;24.30;;;;;;;;;;5042865;28;20041;-66
2020/12/02 05:45:06;;;;;;;44.90;24.65;;;;;;;;;;5043923;28;20091;-66
2020/12/02 05:47:32;;;;;;;40.55;23.65;;;;;;;;;;5043552;28;20521;-66
2020/12/02 05:49:59;;;;;;;40.50;23.38;;;;;;;;;;5047979;28;20051;-66
2020/12/02 05:52:34;;;;;;;45.30;24.60;;;;;;;;;;5045116;28;20047;-67
2020/12/02 05:55:10;;;;;;;46.78;24.05;;;;;;;;;;5047473;28;20045;-66
2020/12/02 05:57:42;;;;;;;41.08;23.27;;;;;;;;;;5050996;28;20512;-66
2020/12/02 06:00:09;;;;;;;42.10;23.27;;;;;;;;;;5061390;28;20459;-66
2020/12/02 06:02:37;;;;;;;35.77;21.80;;;;;;;;;;5047347;28;20041;-66
2020/12/02 06:05:07;;;;;;;44.13;24.42;;;;;;;;;;5043748;28;20776;-66
2020/12/02 06:07:45;;;;;;;39.10;23.17;;;;;;;;;;5025510;28;20408;-66
2020/12/02 06:10:11;;;;;;;38.33;23.30;;;;;;;;;;5049892;28;20065;-66
2020/12/02 06:12:39;;;;;;;40.67;23.48;;;;;;;;;;5051916;28;20052;-66
2020/12/02 06:15:08;;;;;;;47.70;26.02;;;;;;;;;;5052573;28;20043;-66
2020/12/02 06:17:34;;;;;;;45.75;26.25;;;;;;;;;;5047805;28;20049;-66
2020/12/02 06:20:00;;;;;;;38.83;23.70;;;;;;;;;;5046666;28;20231;-67
2020/12/02 06:22:31;;;;;;;41.45;24.05;;;;;;;;;;5052601;28;20048;-66
2020/12/02 06:24:57;;;;;;;41.63;23.95;;;;;;;;;;5056695;28;20042;-66
2020/12/02 06:27:36;;;;;;;38.55;22.67;;;;;;;;;;5047321;28;20053;-66
2020/12/02 06:30:05;;;;;;;38.35;22.52;;;;;;;;;;5043982;28;20041;-66
2020/12/02 06:32:32;;;;;;;43.83;22.80;;;;;;;;;;5047154;28;20539;-66
2020/12/02 06:35:13;;;;;;;36.90;22.73;;;;;;;;;;5048064;28;20617;-66
2020/12/02 06:37:39;;;;;;;44.05;22.77;;;;;;;;;;5038792;28;20559;-66
2020/12/02 06:40:06;;;;;;;37.00;21.83;;;;;;;;;;5049467;28;20055;-66
2020/12/02 06:42:36;;;;;;;46.88;23.63;;;;;;;;;;5040062;28;20107;-66
2020/12/02 06:45:08;;;;;;;37.95;23.15;;;;;;;;;;5056158;28;20041;-66
2020/12/02 06:47:36;;;;;;;42.95;22.88;;;;;;;;;;5048496;28;20052;-66
2020/12/02 06:50:02;;;;;;;;;;;;;;;;;;5049894;28;20531;-66
2020/12/02 06:52:30;;;;;;;35.42;20.40;;;;;;;;;;5047564;28;19921;-66
2020/12/02 06:55:12;;;;;;;39.47;23.88;;;;;;;;;;5035149;28;20052;-66
2020/12/02 06:57:38;;;;;;;37.83;22.85;;;;;;;;;;5062429;28;20040;-67
2020/12/02 07:00:08;;;;;;;40.35;22.38;;;;;;;;;;5050761;28;20045;-66
2020/12/02 07:02:39;;;;;;;47.63;25.92;;;;;;;;;;5058520;28;20044;-66
2020/12/02 07:05:08;;;;;;;35.78;23.15;;;;;;;;;;5047526;28;20083;-66
2020/12/02 07:07:34;;;;;;;43.00;24.17;;;;;;;;;;5042211;28;20057;-66
2020/12/02 07:10:00;;;;;;;40.22;22.65;;;;;;;;;;5048678;28;20492;-66
2020/12/02 07:12:28;;;;;;;39.45;21.98;;;;;;;;;;5053368;28;20127;-66
2020/12/02 07:14:58;;;;;;;40.58;23.88;;;;;;;;;;5047029;28;20042;-66
2020/12/02 07:17:24;;;;;;;44.15;24.35;;;;;;;;;;5037549;28;20041;-66
2020/12/02 07:19:51;;;;;;;41.67;23.40;;;;;;;;;;5044944;28;20033;-67
2020/12/02 07:22:27;;;;;;;38.63;22.30;;;;;;;;;;5050900;28;20120;-66
2020/12/02 07:24:59;;;;;;;43.60;24.23;;;;;;;;;;5046858;28;20294;-66
2020/12/02 07:27:25;;;;;;;44.80;23.60;;;;;;;;;;5050400;28;20044;-66
2020/12/02 07:30:02;;;;;;;44.47;23.90;;;;;;;;;;5056738;28;20115;-66
2020/12/02 07:32:28;;;;;;;40.50;23.80;;;;;;;;;;5043631;28;20563;-66
2020/12/02 07:35:06;;;;;;;39.97;22.05;;;;;;;;;;5040686;28;20062;-66
2020/12/02 07:37:33;;;;;;;38.53;21.15;;;;;;;;;;5041236;28;20045;-66
2020/12/02 07:40:02;;;;;;;47.00;21.95;;;;;;;;;;5046122;28;20053;-66
2020/12/02 07:42:33;;;;;;;44.75;23.48;;;;;;;;;;5039758;28;20128;-66
2020/12/02 07:45:15;;;;;;;37.55;22.27;;;;;;;;;;5039396;28;20040;-66
2020/12/02 07:47:47;;;;;;;38.30;21.48;;;;;;;;;;5043394;28;20057;-66
2020/12/02 07:50:32;;;;;;;37.17;20.52;;;;;;;;;;5040670;28;20480;-66
2020/12/02 07:53:04;;;;;;;35.80;20.80;;;;;;;;;;5041218;28;20048;-66
2020/12/02 07:55:34;;;;;;;34.22;19.50;;;;;;;;;;5058459;28;20563;-66
2020/12/02 07:58:00;;;;;;;31.48;19.05;;;;;;;;;;5049892;28;20049;-66
2020/12/02 08:00:37;;;;;;;33.63;18.13;;;;;;;;;;5056430;28;20037;-66
2020/12/02 08:03:04;;;;;;;28.73;18.40;;;;;;;;;;5046004;28;20041;-66
2020/12/02 08:05:38;;;;;;;26.97;16.93;;;;;;;;;;5042581;28;20056;-66
2020/12/02 08:08:06;;;;;;;30.45;16.30;;;;;;;;;;5049959;28;20739;-66
2020/12/02 08:10:34;;;;;;;27.48;17.70;;;;;;;;;;5040119;28;20052;-66
2020/12/02 08:13:03;;;;;;;30.02;16.73;;;;;;;;;;5045825;28;20044;-66
2020/12/02 08:15:29;;;;;;;27.77;17.02;;;;;;;;;;5047127;28;20408;-66
2020/12/02 08:17:59;;;;;;;32.90;18.63;;;;;;;;;;5058800;28;20053;-66
2020/12/02 08:20:31;;;;;;;28.33;18.48;;;;;;;;;;5039265;28;20952;-66
2020/12/02 08:22:59;;;;;;;31.52;17.83;;;;;;;;;;5061792;28;20046;-66
2020/12/02 08:25:26;;;;;;;27.38;16.95;;;;;;;;;;5045752;28;20140;-66
2020/12/02 08:27:54;;;;;;;29.20;18.13;;;;;;;;;;5049014;28;20045;-66
2020/12/02 08:30:22;;;;;;;27.55;17.88;;;;;;;;;;5046707;28;20432;-66
2020/12/02 08:33:00;;;;;;;28.95;18.40;;;;;;;;;;5037695;28;20210;-66
2020/12/02 08:35:27;;;;;;;26.13;16.45;;;;;;;;;;5043230;28;20052;-66
2020/12/02 08:37:55;;;;;;;29.58;17.10;;;;;;;;;;5048657;28;20492;-66
2020/12/02 08:40:21;;;;;;;25.70;14.00;;;;;;;;;;5055140;28;20073;-66
2020/12/02 08:42:48;;;;;;;23.85;14.98;;;;;;;;;;5051479;28;20049;-66
2020/12/02 08:45:19;;;;;;;23.60;15.70;;;;;;;;;;5057189;28;20041;-66
2020/12/02 08:47:52;;;;;;;22.20;13.95;;;;;;;;;;5046056;28;20037;-66
2020/12/02 08:50:29;;;;;;;23.48;14.32;;;;;;;;;;5040628;28;20041;-66
2020/12/02 08:52:58;;;;;;;23.90;14.85;;;;;;;;;;5047788;28;20072;-66
2020/12/02 08:55:25;;;;;;;23.92;15.18;;;;;;;;;;5043165;28;20075;-66
2020/12/02 08:57:52;;;;;;;23.52;15.10;;;;;;;;;;5058959;28;20056;-66
2020/12/02 09:00:19;;;;;;;27.87;15.53;;;;;;;;;;5048586;28;20040;-66
2020/12/02 09:02:45;;;;;;;23.42;15.30;;;;;;;;;;5051795;28;20052;-66
2020/12/02 09:05:12;;;;;;;23.45;15.27;;;;;;;;;;5058760;28;20045;-66
2020/12/02 09:07:38;;;;;;;22.67;14.60;;;;;;;;;;5046140;28;20049;-66
2020/12/02 09:10:05;;;;;;;24.60;15.73;;;;;;;;;;5054492;28;20045;-66
2020/12/02 09:12:32;;;;;;;26.52;15.65;;;;;;;;;;5053749;28;20033;-66
2020/12/02 09:14:58;;;;;;;21.55;14.38;;;;;;;;;;5047776;28;20041;-66
2020/12/02 09:17:24;;;;;;;21.75;14.55;;;;;;;;;;5049917;28;20055;-66
2020/12/02 09:19:51;;;;;;;25.48;14.15;;;;;;;;;;5044206;28;20404;-66
2020/12/02 09:22:18;;;;;;;22.15;13.65;;;;;;;;;;5050749;28;20456;-66
2020/12/02 09:24:44;;;;;;;24.60;14.45;;;;;;;;;;5047214;28;20053;-66
2020/12/02 09:27:11;;;;;;;21.98;13.90;;;;;;;;;;5054526;28;20060;-66
2020/12/02 09:29:37;;;;;;;24.10;14.68;;;;;;;;;;5045693;28;20045;-66
2020/12/02 09:32:04;;;;;;;21.27;14.02;;;;;;;;;;5053687;28;20119;-66
2020/12/02 09:34:30;;;;;;;21.27;14.23;;;;;;;;;;5049533;28;20512;-66
2020/12/02 09:36:57;;;;;;;24.27;14.27;;;;;;;;;;5040039;28;20041;-66
2020/12/02 09:39:23;;;;;;;19.27;13.83;;;;;;;;;;5041700;28;20078;-66
2020/12/02 09:42:00;;;;;;;22.85;14.90;;;;;;;;;;5061551;28;20052;-66
2020/12/02 09:44:26;;;;;;;22.85;14.95;;;;;;;;;;5051877;28;20175;-66
2020/12/02 09:46:54;;;;;;;24.75;15.65;;;;;;;;;;5053124;28;20117;-66
2020/12/02 09:49:21;;;;;;;21.85;14.50;;;;;;;;;;5048729;28;20494;-66
2020/12/02 09:52:04;;;;;;;21.45;14.93;;;;;;;;;;5045833;28;20083;-66
2020/12/02 09:54:39;;;;;;;26.30;16.30;;;;;;;;;;5053722;28;20055;-66
2020/12/02 09:57:26;;;;;;;22.50;14.75;;;;;;;;;;5046602;28;20045;-66
2020/12/02 09:59:56;;;;;;;21.90;14.85;;;;;;;;;;5051742;28;20044;-66
2020/12/02 10:02:35;;;;;;;22.70;14.63;;;;;;;;;;5049215;28;20067;-66
2020/12/02 10:05:19;;;;;;;22.98;13.75;;;;;;;;;;5058830;28;20139;-66
2020/12/02 10:07:56;;;;;;;22.95;13.20;;;;;;;;;;5048252;28;20501;-66
2020/12/02 10:10:39;;;;;;;20.13;12.98;;;;;;;;;;5051493;28;20390;-66
2020/12/02 10:13:12;;;;;;;22.38;14.27;;;;;;;;;;5041947;28;20053;-66
2020/12/02 10:15:51;;;;;;;20.83;13.73;;;;;;;;;;5046583;28;20501;-67
2020/12/02 10:18:23;;;;;;;22.02;14.10;;;;;;;;;;5040684;28;20393;-66
2020/12/02 10:20:59;;;;;;;20.27;13.73;;;;;;;;;;5054729;28;20116;-66
2020/12/02 10:23:45;;;;;;;22.27;15.50;;;;;;;;;;5026795;28;20045;-66
2020/12/02 10:26:30;;;;;;;22.63;13.57;;;;;;;;;;5049952;28;20048;-66
2020/12/02 10:29:01;;;;;;;22.35;13.05;;;;;;;;;;5044116;28;20036;-67
2020/12/02 10:31:30;;;;;;;23.27;14.60;;;;;;;;;;5044941;28;20051;-66
2020/12/02 10:34:08;;;;;;;22.45;13.98;;;;;;;;;;5050919;28;20044;-67
2020/12/02 10:36:34;;;;;;;;;;;;;;;;;;5051456;28;20073;-66
2020/12/02 10:39:03;;;;;;;24.52;13.55;;;;;;;;;;5046878;28;19944;-66
2020/12/02 10:41:48;;;;;;;22.58;13.82;;;;;;;;;;5057700;28;20051;-66
2020/12/02 10:44:20;;;;;;;24.90;13.43;;;;;;;;;;5054703;28;20082;-66
2020/12/02 10:46:56;;;;;;;21.65;13.95;;;;;;;;;;5063352;28;20127;-66
2020/12/02 10:49:30;;;;;;;21.65;14.10;;;;;;;;;;5041929;28;20044;-66
2020/12/02 10:51:58;;;;;;;24.35;15.80;;;;;;;;;;5046496;28;20501;-66
2020/12/02 10:54:27;;;;;;;24.15;14.77;;;;;;;;;;5048443;28;20613;-66
2020/12/02 10:56:56;;;;;;;23.67;14.75;;;;;;;;;;5046394;28;20045;-66
2020/12/02 10:59:22;;;;;;;23.40;15.00;;;;;;;;;;5047141;28;20045;-66
2020/12/02 11:01:49;;;;;;;23.05;14.43;;;;;;;;;;5044763;28;20045;-66
2020/12/02 11:04:16;;;;;;;22.85;14.13;;;;;;;;;;5043756;28;20044;-66
2020/12/02 11:06:43;;;;;;;21.42;14.77;;;;;;;;;;5049467;28;20517;-66
2020/12/02 11:09:16;;;;;;;21.83;14.32;;;;;;;;;;5050478;28;20130;-66
2020/12/02 11:11:46;;;;;;;23.48;13.75;;;;;;;;;;5057742;28;20064;-66
2020/12/02 11:14:33;;;;;;;22.70;13.80;;;;;;;;;;5041354;28;21031;-66
2020/12/02 11:17:19;;;;;;;21.60;14.45;;;;;;;;;;5045396;28;20040;-66
2020/12/02 11:19:50;;;;;;;22.63;14.68;;;;;;;;;;5049890;28;20469;-66
2020/12/02 11:22:43;;;;;;;19.42;13.60;;;;;;;;;;5049599;28;20068;-66
2020/12/02 11:25:18;;;;;;;22.38;13.85;;;;;;;;;;5037921;28;20056;-66
2020/12/02 11:27:46;;;;;;;20.38;14.02;;;;;;;;;;5046478;28;20519;-66
2020/12/02 11:30:20;;;;;;;20.67;14.25;;;;;;;;;;5050684;28;20055;-66
2020/12/02 11:33:06;;;;;;;21.13;13.55;;;;;;;;;;5057318;28;20047;-66
2020/12/02 11:36:11;;;;;;;22.38;13.70;;;;;;;;;;5047303;28;20064;-66
2020/12/02 11:38:42;;;;;;;22.63;15.13;;;;;;;;;;4969641;28;20047;-66
2020/12/02 11:41:23;;;;;;;23.85;14.50;;;;;;;;;;4985966;28;20418;-66
2020/12/02 11:43:55;;;;;;;22.90;14.95;;;;;;;;;;5013741;28;20087;-66
2020/12/02 11:46:22;;;;;;;24.38;15.30;;;;;;;;;;5037550;28;20053;-66
2020/12/02 11:49:08;;;;;;;20.73;13.70;;;;;;;;;;5042368;28;20128;-66
2020/12/02 11:51:49;;;;;;;26.13;14.85;;;;;;;;;;5043174;28;20505;-66
2020/12/02 11:54:16;;;;;;;25.85;15.15;;;;;;;;;;5034704;28;20127;-66
2020/12/02 11:56:47;;;;;;;22.13;14.23;;;;;;;;;;5036858;28;20125;-66
2020/12/02 11:59:17;;;;;;;22.90;14.57;;;;;;;;;;5055910;28;20337;-66
2020/12/02 12:01:43;;;;;;;21.60;14.82;;;;;;;;;;5052529;28;20373;-66
2020/12/02 12:04:09;;;;;;;25.70;15.52;;;;;;;;;;5043737;28;20048;-67
2020/12/02 12:06:35;;;;;;;23.85;14.93;;;;;;;;;;5045180;28;20052;-66
2020/12/02 12:09:06;;;;;;;24.02;16.60;;;;;;;;;;5059855;28;20394;-66
2020/12/02 12:11:34;;;;;;;27.77;15.00;;;;;;;;;;5048039;28;20506;-66
2020/12/02 12:14:00;;;;;;;;;;;;;;;;;;5042725;28;20498;-66
2020/12/02 12:16:37;;;;;;;24.85;15.13;;;;;;;;;;5040873;28;19920;-66
2020/12/02 12:19:14;;;;;;;23.77;14.45;;;;;;;;;;5039155;28;20040;-66
2020/12/02 12:21:57;;;;;;;25.80;14.93;;;;;;;;;;5041335;28;20041;-66
2020/12/02 12:24:23;;;;;;;27.58;17.77;;;;;;;;;;5050667;28;20374;-66
2020/12/02 12:26:51;;;;;;;30.65;17.75;;;;;;;;;;5049607;28;20124;-66
2020/12/02 12:29:17;;;;;;;25.45;16.35;;;;;;;;;;5061177;28;20075;-66
2020/12/02 12:31:46;;;;;;;26.85;16.83;;;;;;;;;;5055060;28;20048;-66
2020/12/02 12:34:32;;;;;;;27.88;17.38;;;;;;;;;;5056345;28;20412;-66
2020/12/02 12:37:00;;;;;;;24.63;14.32;;;;;;;;;;5023267;28;20038;-66
2020/12/02 12:39:46;;;;;;;26.35;15.05;;;;;;;;;;5039831;28;20049;-66
2020/12/02 12:42:13;;;;;;;25.00;14.32;;;;;;;;;;5043169;28;20048;-66
2020/12/02 12:44:41;;;;;;;21.13;13.70;;;;;;;;;;5047883;28;20045;-66
2020/12/02 12:47:08;;;;;;;;;;;;;;;;;;5055945;28;20041;-67
2020/12/02 12:49:34;;;;;;;21.63;13.30;;;;;;;;;;5056484;28;19924;-66
2020/12/02 12:52:03;;;;;;;23.52;14.40;;;;;;;;;;5045124;28;20047;-66
2020/12/02 12:54:29;;;;;;;22.23;15.18;;;;;;;;;;5050379;28;20488;-66
2020/12/02 12:56:57;;;;;;;24.08;14.10;;;;;;;;;;5038234;28;20049;-66
2020/12/02 12:59:24;;;;;;;23.70;15.82;;;;;;;;;;5048075;28;20516;-67
2020/12/02 13:01:52;;;;;;;21.88;13.73;;;;;;;;;;5039471;28;20067;-66
2020/12/02 13:04:19;;;;;;;23.65;14.35;;;;;;;;;;5046763;28;20134;-66
2020/12/02 13:06:45;;;;;;;;;;;;;;;;;;5041009;28;20047;-66
2020/12/02 13:09:17;;;;;;;24.75;13.77;;;;;;;;;;5045653;28;19921;-66
2020/12/02 13:12:05;;;;;;;24.70;14.30;;;;;;;;;;5019706;28;20069;-66
2020/12/02 13:14:34;;;;;;;25.38;14.57;;;;;;;;;;5043525;28;20060;-66
2020/12/02 13:17:07;;;;;;;24.02;14.60;;;;;;;;;;5045637;28;20040;-66
2020/12/02 13:19:33;;;;;;;26.73;15.25;;;;;;;;;;5040267;28;20566;-66
2020/12/02 13:22:06;;;;;;;23.65;14.82;;;;;;;;;;5044262;28;20040;-66
2020/12/02 13:24:46;;;;;;;23.55;14.27;;;;;;;;;;5041658;28;20053;-66
2020/12/02 13:27:21;;;;;;;27.23;15.80;;;;;;;;;;5051850;28;20049;-66
2020/12/02 13:29:52;;;;;;;24.13;13.73;;;;;;;;;;5036753;28;20621;-66
2020/12/02 13:32:26;;;;;;;25.83;15.35;;;;;;;;;;5039893;28;20044;-66
2020/12/02 13:34:54;;;;;;;24.70;14.82;;;;;;;;;;5046718;28;20103;-66
2020/12/02 13:37:22;;;;;;;26.55;16.50;;;;;;;;;;5050662;28;20041;-66
2020/12/02 13:39:48;;;;;;;24.75;13.63;;;;;;;;;;5051851;28;20036;-66
2020/12/02 13:42:15;;;;;;;28.65;15.85;;;;;;;;;;5043268;28;20045;-66
2020/12/02 13:44:46;;;;;;;26.70;15.85;;;;;;;;;;5048035;28;20489;-66
2020/12/02 13:47:13;;;;;;;27.20;15.38;;;;;;;;;;5043738;28;20125;-66
2020/12/02 13:49:40;;;;;;;22.63;14.53;;;;;;;;;;5044545;28;20045;-66
2020/12/02 13:52:13;;;;;;;24.83;15.60;;;;;;;;;;5053407;28;20045;-66
2020/12/02 13:54:51;;;;;;;26.23;14.50;;;;;;;;;;5055375;28;20049;-66
2020/12/02 13:57:23;;;;;;;27.42;15.73;;;;;;;;;;5056626;28;20435;-66
2020/12/02 13:59:56;;;;;;;30.25;15.10;;;;;;;;;;5053663;28;20134;-66
2020/12/02 14:02:22;;;;;;;29.35;15.85;;;;;;;;;;5052862;28;20468;-66
2020/12/02 14:04:57;;;;;;;23.70;14.52;;;;;;;;;;5049753;28;20042;-66
2020/12/02 14:07:33;;;;;;;28.50;15.70;;;;;;;;;;5049588;28;20044;-66
2020/12/02 14:10:00;;;;;;;25.38;14.60;;;;;;;;;;5054580;28;20123;-66
2020/12/02 14:12:31;;;;;;;27.95;16.00;;;;;;;;;;5056491;28;20043;-66
2020/12/02 14:14:57;;;;;;;28.88;15.32;;;;;;;;;;5049727;28;20048;-66
2020/12/02 14:17:23;;;;;;;27.50;15.05;;;;;;;;;;5063238;28;20044;-66
2020/12/02 14:19:50;;;;;;;27.20;13.40;;;;;;;;;;5049346;28;20059;-66
2020/12/02 14:22:21;;;;;;;28.87;14.90;;;;;;;;;;5053126;28;20056;-66
2020/12/02 14:24:51;;;;;;;31.33;15.80;;;;;;;;;;5055745;28;20579;-66
2020/12/02 14:27:19;;;;;;;29.88;15.98;;;;;;;;;;5052501;28;20040;-66
2020/12/02 14:29:45;;;;;;;;;;;;;;;;;;5051586;28;20041;-66
2020/12/02 14:32:12;;;;;;;26.50;14.05;;;;;;;;;;5052513;28;19921;-66
2020/12/02 14:34:39;;;;;;;32.67;17.30;;;;;;;;;;5049986;28;20382;-66
2020/12/02 14:37:06;;;;;;;34.45;17.33;;;;;;;;;;5048533;28;20041;-66